createdAt,value
2023-04-11T00:01:50.176Z,30.30
2023-04-11T00:04:20.879Z,30.00
2023-04-11T00:06:48.688Z,29.80
2023-04-11T00:09:16.936Z,30.90
2023-04-11T00:11:43.993Z,31.00
2023-04-11T00:14:12.745Z,31.00
2023-04-11T00:16:41.675Z,30.30
2023-04-11T00:19:09.639Z,29.80
2023-04-11T00:21:40.448Z,29.60
2023-04-11T00:24:10.891Z,29.00
2023-04-11T00:26:38.351Z,29.70
2023-04-11T00:29:05.542Z,29.60
2023-04-11T00:31:32.719Z,30.00
2023-04-11T00:34:01.046Z,30.20
2023-04-11T00:36:28.250Z,30.10
2023-04-11T00:38:55.533Z,30.60
2023-04-11T00:41:24.430Z,30.80
2023-04-11T00:43:51.464Z,30.70
2023-04-11T00:46:18.834Z,29.70
2023-04-11T00:48:46.234Z,29.90
2023-04-11T00:51:14.147Z,29.80
2023-04-11T00:53:42.159Z,30.00
2023-04-11T00:56:11.334Z,29.40
2023-04-11T00:58:39.967Z,29.20
2023-04-11T01:01:10.699Z,29.30
2023-04-11T01:03:39.314Z,29.50
2023-04-11T01:06:08.379Z,28.60
2023-04-11T01:08:36.886Z,29.30
2023-04-11T01:11:04.431Z,29.60
2023-04-11T01:13:34.341Z,30.00
2023-04-11T01:16:01.478Z,30.10
2023-04-11T01:18:28.663Z,29.40
2023-04-11T01:20:55.896Z,29.80
2023-04-11T01:23:25.513Z,30.30
2023-04-11T01:25:52.709Z,30.60
2023-04-11T01:28:21.079Z,30.80
2023-04-11T01:30:49.178Z,30.80
2023-04-11T01:33:17.129Z,30.30
2023-04-11T01:35:44.594Z,30.40
2023-04-11T01:38:11.670Z,30.50
2023-04-11T01:40:39.148Z,30.30
2023-04-11T01:43:08.392Z,30.20
2023-04-11T01:45:36.384Z,30.40
2023-04-11T01:48:08.492Z,30.20
2023-04-11T01:50:36.021Z,29.80
2023-04-11T01:53:03.269Z,29.20
2023-04-11T01:55:30.537Z,29.90
2023-04-11T01:57:57.667Z,29.00
2023-04-11T02:00:24.892Z,29.50
2023-04-11T02:02:52.115Z,29.60
2023-04-11T02:05:19.264Z,29.60
2023-04-11T02:07:46.311Z,30.40
2023-04-11T02:10:13.362Z,30.60
2023-04-11T02:12:40.574Z,29.80
2023-04-11T02:15:08.104Z,29.30
2023-04-11T02:17:35.322Z,29.40
2023-04-11T02:20:05.151Z,29.80
2023-04-11T02:22:32.176Z,29.40
2023-04-11T02:24:59.177Z,29.60
2023-04-11T02:27:26.413Z,29.40
2023-04-11T02:29:53.438Z,30.40
2023-04-11T02:32:23.718Z,30.20
2023-04-11T02:34:50.754Z,29.60
2023-04-11T02:37:17.742Z,29.40
2023-04-11T02:39:44.911Z,30.30
2023-04-11T02:42:14.730Z,28.70
2023-04-11T02:44:41.753Z,29.60
2023-04-11T02:47:11.474Z,29.80
2023-04-11T02:49:41.483Z,28.90
2023-04-11T02:52:08.463Z,29.60
2023-04-11T02:54:35.582Z,28.90
2023-04-11T02:57:02.765Z,29.30
2023-04-11T02:59:29.890Z,29.00
2023-04-11T03:02:01.079Z,28.80
2023-04-11T03:04:28.304Z,29.00
2023-04-11T03:06:55.456Z,29.50
2023-04-11T03:09:23.680Z,29.50
2023-04-11T03:11:50.622Z,28.10
2023-04-11T03:14:19.202Z,28.40
2023-04-11T03:16:46.207Z,28.10
2023-04-11T03:19:13.127Z,28.10
2023-04-11T03:21:40.220Z,27.90
2023-04-11T03:24:07.525Z,28.00
2023-04-11T03:26:34.628Z,27.90
2023-04-11T03:29:01.655Z,28.10
2023-04-11T03:31:30.386Z,28.00
2023-04-11T03:33:59.334Z,27.30
2023-04-11T03:36:29.779Z,27.60
2023-04-11T03:38:57.091Z,27.80
2023-04-11T03:41:24.241Z,27.60
2023-04-11T03:43:51.278Z,28.10
2023-04-11T03:46:18.369Z,28.40
2023-04-11T03:48:47.385Z,28.40
2023-04-11T03:51:14.649Z,28.30
2023-04-11T03:53:41.695Z,28.80
2023-04-11T03:56:09.617Z,29.20
2023-04-11T03:58:37.163Z,28.70
2023-04-11T04:01:04.414Z,29.60
2023-04-11T04:03:31.675Z,30.00
2023-04-11T04:05:58.932Z,30.30
2023-04-11T04:08:25.955Z,29.40
2023-04-11T04:10:52.957Z,29.00
2023-04-11T04:13:20.053Z,29.10
2023-04-11T04:15:47.116Z,29.40
2023-04-11T04:18:14.179Z,30.00
2023-04-11T04:20:42.106Z,29.90
2023-04-11T04:23:09.221Z,30.50
2023-04-11T04:25:36.298Z,30.60
2023-04-11T04:28:03.417Z,29.60
2023-04-11T04:30:30.586Z,29.90
2023-04-11T04:32:59.247Z,29.90
2023-04-11T04:35:26.915Z,29.60
2023-04-11T04:37:54.394Z,29.70
2023-04-11T04:40:21.532Z,29.90
2023-04-11T04:42:59.106Z,30.00
2023-04-11T04:45:26.636Z,29.40
2023-04-11T04:47:53.942Z,29.60
2023-04-11T04:50:21.360Z,29.80
2023-04-11T04:52:49.654Z,29.90
2023-04-11T04:55:17.748Z,28.60
2023-04-11T04:57:44.869Z,29.00
2023-04-11T05:00:13.238Z,29.20
2023-04-11T05:02:40.915Z,29.40
2023-04-11T05:05:08.426Z,30.00
2023-04-11T05:07:36.350Z,30.10
2023-04-11T05:10:03.750Z,29.80
2023-04-11T05:12:30.802Z,30.20
2023-04-11T05:14:57.946Z,30.10
2023-04-11T05:17:26.411Z,29.70
2023-04-11T05:19:53.495Z,29.10
2023-04-11T05:22:20.623Z,29.50
2023-04-11T05:24:48.253Z,30.00
2023-04-11T05:27:15.826Z,29.50
2023-04-11T05:29:42.841Z,30.00
2023-04-11T05:32:09.934Z,29.20
2023-04-11T05:34:51.913Z,28.90
2023-04-11T05:37:19.152Z,29.20
2023-04-11T05:39:46.413Z,28.40
2023-04-11T05:42:14.057Z,28.70
2023-04-11T05:44:41.293Z,29.90
2023-04-11T05:47:10.279Z,29.50
2023-04-11T05:49:37.500Z,28.70
2023-04-11T05:52:04.620Z,29.00
2023-04-11T05:54:34.060Z,28.40
2023-04-11T05:57:04.468Z,28.50
2023-04-11T05:59:32.706Z,29.20
2023-04-11T06:02:00.972Z,29.10
2023-04-11T06:04:28.473Z,28.80
2023-04-11T06:06:56.068Z,28.60
2023-04-11T06:09:23.145Z,28.90
2023-04-11T06:11:50.244Z,29.40
2023-04-11T06:14:17.506Z,29.30
2023-04-11T06:16:44.523Z,29.60
2023-04-11T06:19:11.833Z,28.90
2023-04-11T06:21:39.198Z,28.80
2023-04-11T06:24:09.744Z,28.60
2023-04-11T06:26:37.303Z,28.50
2023-04-11T06:29:06.551Z,28.80
2023-04-11T06:31:34.256Z,28.70
2023-04-11T06:34:02.323Z,29.50
2023-04-11T06:36:30.290Z,28.80
2023-04-11T06:38:57.464Z,28.40
2023-04-11T06:41:24.574Z,27.60
2023-04-11T06:43:51.602Z,28.30
2023-04-11T06:46:18.656Z,28.30
2023-04-11T06:48:45.875Z,28.20
2023-04-11T06:51:12.960Z,28.60
2023-04-11T06:53:43.003Z,28.50
2023-04-11T06:56:10.743Z,28.40
2023-04-11T06:58:37.934Z,27.90
2023-04-11T07:01:05.082Z,28.10
2023-04-11T07:03:32.675Z,28.30
2023-04-11T07:05:59.901Z,29.20
2023-04-11T07:08:26.925Z,29.90
2023-04-11T07:10:53.946Z,29.50
2023-04-11T07:13:21.670Z,29.10
2023-04-11T07:15:48.704Z,28.40
2023-04-11T07:18:17.053Z,29.10
2023-04-11T07:20:44.129Z,28.80
2023-04-11T07:23:11.232Z,28.80
2023-04-11T07:25:39.351Z,29.30
2023-04-11T07:28:09.369Z,29.40
2023-04-11T07:30:36.449Z,29.60
2023-04-11T07:33:03.943Z,29.50
2023-04-11T07:35:31.847Z,29.10
2023-04-11T07:38:01.344Z,29.40
2023-04-11T07:40:29.188Z,29.10
2023-04-11T07:42:56.429Z,29.60
2023-04-11T07:45:24.705Z,28.80
2023-04-11T07:47:51.833Z,29.40
2023-04-11T07:50:19.047Z,29.70
2023-04-11T07:52:46.007Z,30.20
2023-04-11T07:55:12.981Z,30.20
2023-04-11T07:57:42.709Z,30.50
2023-04-11T08:00:20.446Z,30.10
2023-04-11T08:02:47.742Z,30.50
2023-04-11T08:05:15.088Z,29.90
2023-04-11T08:07:42.228Z,28.90
2023-04-11T08:10:09.797Z,28.60
2023-04-11T08:12:37.306Z,28.00
2023-04-11T08:15:05.004Z,28.10
2023-04-11T08:17:38.037Z,27.60
2023-04-11T08:20:09.232Z,27.00
2023-04-11T08:22:36.566Z,26.10
2023-04-11T08:25:04.114Z,26.70
2023-04-11T08:27:31.179Z,27.00
2023-04-11T08:29:59.304Z,26.80
2023-04-11T08:32:26.617Z,26.60
2023-04-11T08:34:53.948Z,27.70
2023-04-11T08:37:21.386Z,27.70
2023-04-11T08:39:48.492Z,28.10
2023-04-11T08:42:26.282Z,28.40
2023-04-11T08:45:06.064Z,28.80
2023-04-11T08:47:33.195Z,29.80
2023-04-11T08:50:00.336Z,28.70
2023-04-11T08:52:28.495Z,29.30
2023-04-11T08:54:55.628Z,30.10
2023-04-11T08:57:32.869Z,29.80
2023-04-11T09:00:13.915Z,30.70
2023-04-11T09:02:58.477Z,30.30
2023-04-11T09:05:27.479Z,30.00
2023-04-11T09:07:55.276Z,30.10
2023-04-11T09:10:23.040Z,30.00
2023-04-11T09:12:50.629Z,29.30
2023-04-11T09:15:22.467Z,28.70
2023-04-11T09:17:52.758Z,27.80
2023-04-11T09:20:31.520Z,26.50
2023-04-11T09:22:59.214Z,26.40
2023-04-11T09:25:26.568Z,26.50
2023-04-11T09:28:10.603Z,26.80
2023-04-11T09:30:38.230Z,26.30
2023-04-11T09:33:26.088Z,25.60
2023-04-11T09:35:54.884Z,25.80
2023-04-11T09:38:33.099Z,25.90
2023-04-11T09:41:04.646Z,25.70
2023-04-11T09:43:56.034Z,26.00
2023-04-11T09:46:23.492Z,24.90
2023-04-11T09:48:52.185Z,25.60
2023-04-11T09:53:49.891Z,27.00
2023-04-11T09:56:16.943Z,27.50
2023-04-11T09:58:44.018Z,27.20
2023-04-11T10:01:11.094Z,27.10
2023-04-11T10:03:42.803Z,27.10
2023-04-11T10:06:22.163Z,27.30
2023-04-11T10:08:51.328Z,27.40
2023-04-11T10:11:23.992Z,27.60
2023-04-11T10:13:51.741Z,28.40
2023-04-11T10:16:21.393Z,27.80
2023-04-11T10:18:54.330Z,28.10
2023-04-11T10:21:34.043Z,29.20
2023-04-11T10:24:18.186Z,29.90
2023-04-11T10:26:50.562Z,30.10
2023-04-11T10:29:33.434Z,29.70
2023-04-11T10:32:13.473Z,29.90
2023-04-11T10:35:00.780Z,30.20
2023-04-11T10:37:31.130Z,30.10
2023-04-11T10:40:00.421Z,30.80
2023-04-11T10:42:34.854Z,31.50
2023-04-11T10:45:20.169Z,31.60
2023-04-11T10:48:11.971Z,31.70
2023-04-11T10:50:42.169Z,31.30
2023-04-11T10:53:14.435Z,31.90
2023-04-11T10:55:49.718Z,31.90
2023-04-11T10:58:19.897Z,31.80
2023-04-11T11:00:49.971Z,32.50
2023-04-11T11:03:22.658Z,31.60
2023-04-11T11:06:07.494Z,32.00
2023-04-11T11:08:41.565Z,32.30
2023-04-11T11:11:10.898Z,31.30
2023-04-11T11:13:56.645Z,31.60
2023-04-11T11:16:26.007Z,31.30
2023-04-11T11:18:55.373Z,31.60
2023-04-11T11:21:28.130Z,30.70
2023-04-11T11:23:57.290Z,31.00
2023-04-11T11:26:44.130Z,31.20
2023-04-11T11:29:12.303Z,31.60
2023-04-11T11:31:42.040Z,31.50
2023-04-11T11:34:23.034Z,32.10
2023-04-11T11:36:51.325Z,31.50
2023-04-11T11:39:20.416Z,31.40
2023-04-11T11:41:48.832Z,31.70
2023-04-11T11:44:23.269Z,32.40
2023-04-11T11:47:09.869Z,31.60
2023-04-11T11:49:51.747Z,31.10
2023-04-11T11:52:42.529Z,31.30
2023-04-11T11:55:18.391Z,31.20
2023-04-11T11:57:47.424Z,32.00
2023-04-11T12:00:15.104Z,32.60
2023-04-11T12:02:44.369Z,32.50
2023-04-11T12:05:12.515Z,32.00
2023-04-11T12:07:40.849Z,32.70
2023-04-11T12:10:11.007Z,32.40
2023-04-11T12:12:43.755Z,32.60
2023-04-11T12:15:23.249Z,32.50
2023-04-11T12:17:55.317Z,32.40
2023-04-11T12:20:27.532Z,32.60
2023-04-11T12:22:55.536Z,31.70
2023-04-11T12:25:23.339Z,31.80
2023-04-11T12:27:50.420Z,31.20
2023-04-11T12:30:17.517Z,30.60
2023-04-11T12:32:45.665Z,30.80
2023-04-11T12:35:13.154Z,30.90
2023-04-11T12:37:40.482Z,31.60
2023-04-11T12:40:12.409Z,31.60
2023-04-11T12:42:49.482Z,32.10
2023-04-11T12:45:23.817Z,31.90
2023-04-11T12:47:51.085Z,32.30
2023-04-11T12:50:18.520Z,32.30
2023-04-11T12:52:46.042Z,32.00
2023-04-11T12:55:13.787Z,32.00
2023-04-11T12:57:41.725Z,32.20
2023-04-11T13:00:14.607Z,32.20
2023-04-11T13:02:44.623Z,32.40
2023-04-11T13:05:14.798Z,31.90
2023-04-11T13:07:45.174Z,32.30
2023-04-11T13:10:14.141Z,32.80
2023-04-11T13:12:44.897Z,32.90
2023-04-11T13:15:16.740Z,33.00
2023-04-11T13:17:44.036Z,33.00
2023-04-11T13:20:14.316Z,32.50
2023-04-11T13:22:43.222Z,32.60
2023-04-11T13:25:11.100Z,32.10
2023-04-11T13:27:39.831Z,32.50
2023-04-11T13:30:27.892Z,32.90
2023-04-11T13:32:54.951Z,33.10
2023-04-11T13:35:22.067Z,32.20
2023-04-11T13:37:49.867Z,32.30
2023-04-11T13:40:16.992Z,32.60
2023-04-11T13:42:44.206Z,32.00
2023-04-11T13:45:11.857Z,31.40
2023-04-11T13:47:39.345Z,30.80
2023-04-11T13:50:08.411Z,32.10
2023-04-11T13:52:35.563Z,32.20
2023-04-11T13:55:03.487Z,32.30
2023-04-11T13:57:30.491Z,32.60
2023-04-11T13:59:58.543Z,32.80
2023-04-11T14:02:26.292Z,32.80
2023-04-11T14:04:55.125Z,33.00
2023-04-11T14:07:22.279Z,32.90
2023-04-11T14:09:49.303Z,33.50
2023-04-11T14:12:16.382Z,32.90
2023-04-11T14:14:43.556Z,32.60
2023-04-11T14:17:11.186Z,33.80
2023-04-11T14:19:38.287Z,34.30
2023-04-11T14:22:06.058Z,33.80
2023-04-11T14:24:33.172Z,33.30
2023-04-11T14:27:00.254Z,33.70
2023-04-11T14:29:27.660Z,33.80
2023-04-11T14:31:55.508Z,34.00
2023-04-11T14:34:22.514Z,34.10
2023-04-11T14:36:51.329Z,34.70
2023-04-11T14:39:18.916Z,35.10
2023-04-11T14:41:46.168Z,34.50
2023-04-11T14:44:16.611Z,34.70
2023-04-11T14:46:43.752Z,34.90
2023-04-11T14:49:13.247Z,35.20
2023-04-11T14:51:40.389Z,33.80
2023-04-11T14:54:07.418Z,33.80
2023-04-11T14:56:34.663Z,34.40
2023-04-11T14:59:01.781Z,33.70
2023-04-11T15:01:28.829Z,33.90
2023-04-11T15:03:56.756Z,34.20
2023-04-11T15:06:24.008Z,33.20
2023-04-11T15:08:52.231Z,30.90
2023-04-11T15:11:19.864Z,28.70
2023-04-11T15:13:48.401Z,27.70
2023-04-11T15:16:16.930Z,28.60
2023-04-11T15:18:44.949Z,29.20
2023-04-11T15:21:11.995Z,30.60
2023-04-11T15:23:39.166Z,31.70
2023-04-11T15:26:06.659Z,32.50
2023-04-11T15:28:36.137Z,33.40
2023-04-11T15:31:04.832Z,34.10
2023-04-11T15:33:32.096Z,34.40
2023-04-11T15:36:00.758Z,34.50
2023-04-11T15:38:28.734Z,34.30
2023-04-11T15:40:58.567Z,34.20
2023-04-11T15:43:26.252Z,34.00
2023-04-11T15:45:53.893Z,33.30
2023-04-11T15:48:21.061Z,33.30
2023-04-11T15:50:48.310Z,33.40
2023-04-11T15:53:15.402Z,33.10
2023-04-11T15:55:43.559Z,32.80
2023-04-11T15:58:10.993Z,32.80
2023-04-11T16:00:39.140Z,32.50
2023-04-11T16:03:08.927Z,32.10
2023-04-11T16:05:38.960Z,32.00
2023-04-11T16:08:07.625Z,31.80
2023-04-11T16:10:35.084Z,30.30
2023-04-11T16:13:03.758Z,30.00
2023-04-11T16:15:30.812Z,29.60
2023-04-11T16:17:57.930Z,29.30
2023-04-11T16:20:25.035Z,29.30
2023-04-11T16:22:52.444Z,29.20
2023-04-11T16:25:21.582Z,29.60
2023-04-11T16:27:50.410Z,30.80
2023-04-11T16:30:17.570Z,31.60
2023-04-11T16:32:45.145Z,32.40
2023-04-11T16:35:12.322Z,33.30
2023-04-11T16:37:39.365Z,33.60
2023-04-11T16:40:11.391Z,32.60
2023-04-11T16:42:40.047Z,32.80
2023-04-11T16:45:08.264Z,32.40
2023-04-11T16:47:35.370Z,32.40
2023-04-11T16:50:02.563Z,32.10
2023-04-11T16:52:30.041Z,31.40
2023-04-11T16:54:57.159Z,31.50
2023-04-11T16:57:25.510Z,31.20
2023-04-11T16:59:52.526Z,31.50
2023-04-11T17:02:20.895Z,32.40
2023-04-11T17:04:47.991Z,32.60
2023-04-11T17:07:14.985Z,32.80
2023-04-11T17:09:41.980Z,33.20
2023-04-11T17:12:09.030Z,33.50
2023-04-11T17:14:37.588Z,33.40
2023-04-11T17:17:04.664Z,32.70
2023-04-11T17:19:31.830Z,32.80
2023-04-11T17:21:59.131Z,32.30
2023-04-11T17:24:26.268Z,32.50
2023-04-11T17:26:53.916Z,32.20
2023-04-11T17:29:21.011Z,32.50
2023-04-11T17:31:48.019Z,32.00
2023-04-11T17:34:15.533Z,32.10
2023-04-11T17:36:43.215Z,32.70
2023-04-11T17:39:17.151Z,33.10
2023-04-11T17:41:48.138Z,32.90
2023-04-11T17:44:15.240Z,32.40
2023-04-11T17:46:43.566Z,32.80
2023-04-11T17:49:10.739Z,32.90
2023-04-11T17:51:43.090Z,32.90
2023-04-11T17:54:16.178Z,32.70
2023-04-11T17:56:44.067Z,31.70
2023-04-11T17:59:11.840Z,32.00
2023-04-11T18:01:39.903Z,32.50
2023-04-11T18:04:09.742Z,32.80
2023-04-11T18:06:36.873Z,32.90
2023-04-11T18:09:04.270Z,33.50
2023-04-11T18:11:31.502Z,34.00
2023-04-11T18:13:58.971Z,34.30
2023-04-11T18:16:26.379Z,34.40
2023-04-11T18:18:53.443Z,34.30
2023-04-11T18:21:21.848Z,33.80
2023-04-11T18:23:49.425Z,33.20
2023-04-11T18:26:16.406Z,33.10
2023-04-11T18:28:43.434Z,32.80
2023-04-11T18:31:11.180Z,32.60
2023-04-11T18:33:41.172Z,32.50
2023-04-11T18:36:10.514Z,32.40
2023-04-11T18:38:37.596Z,32.20
2023-04-11T18:41:07.441Z,32.10
2023-04-11T18:43:35.825Z,32.20
2023-04-11T18:46:03.120Z,32.30
2023-04-11T18:48:31.813Z,32.50
2023-04-11T18:51:03.399Z,32.50
2023-04-11T18:53:31.030Z,32.70
2023-04-11T18:55:58.206Z,32.60
2023-04-11T18:58:26.808Z,33.30
2023-04-11T19:00:56.308Z,33.60
2023-04-11T19:03:24.291Z,32.90
2023-04-11T19:05:54.389Z,33.00
2023-04-11T19:08:21.441Z,32.90
2023-04-11T19:10:48.373Z,32.70
2023-04-11T19:13:15.451Z,33.30
2023-04-11T19:15:42.523Z,33.30
2023-04-11T19:18:10.606Z,33.10
2023-04-11T19:20:39.119Z,33.10
2023-04-11T19:23:13.833Z,33.10
2023-04-11T19:25:41.671Z,32.60
2023-04-11T19:28:08.715Z,32.50
2023-04-11T19:30:35.844Z,32.70
2023-04-11T19:33:04.025Z,33.10
2023-04-11T19:35:31.460Z,33.50
2023-04-11T19:38:00.524Z,33.00
2023-04-11T19:40:29.171Z,32.70
2023-04-11T19:42:56.280Z,32.80
2023-04-11T19:45:24.803Z,32.30
2023-04-11T19:47:52.025Z,32.40
2023-04-11T19:50:19.179Z,32.30
2023-04-11T19:52:46.377Z,31.90
2023-04-11T19:55:16.129Z,31.50
2023-04-11T19:57:43.972Z,31.30
2023-04-11T20:00:13.524Z,31.10
2023-04-11T20:02:48.286Z,31.20
2023-04-11T20:05:20.036Z,30.90
2023-04-11T20:07:50.115Z,31.00
2023-04-11T20:10:17.724Z,31.40
2023-04-11T20:12:45.203Z,30.90
2023-04-11T20:15:15.689Z,31.10
2023-04-11T20:17:44.464Z,30.50
2023-04-11T20:20:13.456Z,31.40
2023-04-11T20:22:40.624Z,31.90
2023-04-11T20:25:08.210Z,32.20
2023-04-11T20:27:35.590Z,32.60
2023-04-11T20:30:07.028Z,32.10
2023-04-11T20:32:37.651Z,32.20
2023-04-11T20:35:05.453Z,32.10
2023-04-11T20:37:34.514Z,32.80
2023-04-11T20:40:02.375Z,33.20
2023-04-11T20:42:31.669Z,33.50
2023-04-11T20:45:06.894Z,33.20
2023-04-11T20:47:37.324Z,32.70
2023-04-11T20:50:07.597Z,32.60
2023-04-11T20:52:35.556Z,32.60
2023-04-11T20:55:03.190Z,32.80
2023-04-11T20:57:31.659Z,32.70
2023-04-11T20:59:58.914Z,33.00
2023-04-11T21:02:26.757Z,33.10
2023-04-11T21:04:55.215Z,33.60
2023-04-11T21:07:22.835Z,33.50
2023-04-11T21:09:50.302Z,33.30
2023-04-11T21:12:18.576Z,33.10
2023-04-11T21:14:45.628Z,33.20
2023-04-11T21:17:13.098Z,33.70
2023-04-11T21:19:40.096Z,33.90
2023-04-11T21:22:07.863Z,34.00
2023-04-11T21:24:35.514Z,33.90
2023-04-11T21:27:02.597Z,33.70
2023-04-11T21:29:29.650Z,33.70
2023-04-11T21:31:56.634Z,33.60
2023-04-11T21:34:23.651Z,33.30
2023-04-11T21:36:50.770Z,32.70
2023-04-11T21:39:17.756Z,33.00
2023-04-11T21:41:44.866Z,32.30
2023-04-11T21:44:13.664Z,33.00
2023-04-11T21:46:40.895Z,32.80
2023-04-11T21:49:07.982Z,32.40
2023-04-11T21:51:38.230Z,31.90
2023-04-11T21:54:05.554Z,31.50
2023-04-11T21:56:32.621Z,31.70
2023-04-11T21:58:59.746Z,31.40
2023-04-11T22:01:27.204Z,31.60
2023-04-11T22:03:54.411Z,32.10
2023-04-11T22:06:22.829Z,32.40
2023-04-11T22:08:50.584Z,32.50
2023-04-11T22:11:18.267Z,31.80
2023-04-11T22:13:46.836Z,32.10
2023-04-11T22:16:14.420Z,31.80
2023-04-11T22:18:49.196Z,31.40
2023-04-11T22:21:20.166Z,31.30
2023-04-11T22:23:56.183Z,32.40
2023-04-11T22:26:29.553Z,32.60
2023-04-11T22:28:58.490Z,33.40
2023-04-11T22:31:30.505Z,33.70
2023-04-11T22:33:58.269Z,33.80
2023-04-11T22:36:34.164Z,33.70
2023-04-11T22:39:05.419Z,33.50
2023-04-11T22:41:33.367Z,33.10
2023-04-11T22:44:01.068Z,32.60
2023-04-11T22:46:33.921Z,32.70
2023-04-11T22:49:00.912Z,33.00
2023-04-11T22:51:30.248Z,33.50
2023-04-11T22:53:58.028Z,33.80
2023-04-11T22:56:25.543Z,33.90
2023-04-11T22:58:52.932Z,34.00
2023-04-11T23:01:20.023Z,33.60
2023-04-11T23:03:48.039Z,34.00
2023-04-11T23:06:15.032Z,34.10
2023-04-11T23:08:42.373Z,34.00
2023-04-11T23:11:09.437Z,34.30
2023-04-11T23:13:36.855Z,34.40
2023-04-11T23:16:03.988Z,34.60
2023-04-11T23:18:30.976Z,34.70
2023-04-11T23:20:59.133Z,34.70
2023-04-11T23:23:26.181Z,34.50
2023-04-11T23:25:53.324Z,33.70
2023-04-11T23:28:21.183Z,33.30
2023-04-11T23:30:48.801Z,33.20
2023-04-11T23:33:16.510Z,32.90
2023-04-11T23:35:43.576Z,33.00
2023-04-11T23:38:10.589Z,33.00
2023-04-11T23:40:38.476Z,33.10
2023-04-11T23:43:05.617Z,33.40
2023-04-11T23:45:33.302Z,33.60
2023-04-11T23:48:00.819Z,33.70
2023-04-11T23:50:27.896Z,33.80
2023-04-11T23:52:54.896Z,34.00
2023-04-11T23:55:22.048Z,33.80
2023-04-11T23:57:49.794Z,33.90
